createdAt,value
2022-08-17T00:02:26.518Z,25.30
2022-08-17T00:05:30.336Z,24.50
2022-08-17T00:08:39.240Z,24.61
2022-08-17T00:11:42.306Z,24.42
2022-08-17T00:15:04.749Z,24.62
2022-08-17T00:19:06.555Z,24.40
2022-08-17T00:21:44.691Z,24.63
2022-08-17T00:24:50.648Z,23.96
2022-08-17T00:27:52.495Z,24.01
2022-08-17T00:30:55.835Z,23.86
2022-08-17T00:33:57.655Z,24.47
2022-08-17T00:36:59.497Z,24.18
2022-08-17T00:40:01.412Z,24.14
2022-08-17T00:43:21.982Z,24.81
2022-08-17T00:46:34.884Z,24.77
2022-08-17T00:49:36.702Z,25.24
2022-08-17T00:52:40.027Z,25.18
2022-08-17T00:55:41.910Z,25.75
2022-08-17T00:58:43.742Z,25.48
2022-08-17T01:01:45.992Z,25.38
2022-08-17T01:04:48.207Z,25.01
2022-08-17T01:07:51.035Z,24.80
2022-08-17T01:10:59.417Z,24.87
2022-08-17T01:14:03.673Z,25.30
2022-08-17T01:17:05.913Z,25.05
2022-08-17T01:20:07.931Z,25.32
2022-08-17T01:23:09.764Z,25.13
2022-08-17T01:26:14.030Z,24.45
2022-08-17T01:29:16.011Z,24.51
2022-08-17T01:32:18.926Z,24.98
2022-08-17T01:35:20.846Z,24.27
2022-08-17T01:38:27.240Z,23.32
2022-08-17T01:41:29.210Z,23.63
2022-08-17T01:44:31.108Z,23.74
2022-08-17T01:47:32.979Z,23.97
2022-08-17T01:50:38.119Z,23.33
2022-08-17T01:53:41.003Z,23.42
2022-08-17T01:56:47.405Z,23.55
2022-08-17T01:59:49.664Z,23.28
2022-08-17T02:02:51.578Z,23.39
2022-08-17T02:05:53.659Z,23.68
2022-08-17T02:09:02.566Z,23.17
2022-08-17T02:12:37.204Z,24.35
2022-08-17T02:15:27.634Z,24.89
2022-08-17T02:18:30.209Z,24.55
2022-08-17T02:21:32.519Z,24.79
2022-08-17T02:25:01.187Z,24.30
2022-08-17T02:27:56.934Z,23.98
2022-08-17T02:31:03.733Z,24.05
2022-08-17T02:34:06.210Z,23.76
2022-08-17T02:37:08.598Z,24.12
2022-08-17T02:40:10.732Z,24.24
2022-08-17T02:43:13.773Z,24.56
2022-08-17T02:46:15.633Z,24.02
2022-08-17T02:49:17.437Z,23.60
2022-08-17T02:52:19.270Z,23.58
2022-08-17T02:55:41.578Z,23.83
2022-08-17T02:58:43.463Z,24.16
2022-08-17T03:01:45.342Z,23.68
2022-08-17T03:04:47.321Z,23.65
2022-08-17T03:07:49.149Z,22.87
2022-08-17T03:10:50.958Z,23.20
2022-08-17T03:13:52.826Z,23.27
2022-08-17T03:16:54.663Z,23.42
2022-08-17T03:19:56.486Z,24.05
2022-08-17T03:23:02.776Z,24.57
2022-08-17T03:26:05.049Z,24.59
2022-08-17T03:29:18.861Z,24.39
2022-08-17T03:32:20.833Z,24.08
2022-08-17T03:35:24.689Z,23.31
2022-08-17T03:38:26.558Z,23.42
2022-08-17T03:41:28.390Z,23.86
2022-08-17T03:44:30.192Z,24.22
2022-08-17T03:47:50.870Z,24.26
2022-08-17T03:51:14.682Z,24.05
2022-08-17T03:54:35.317Z,24.25
2022-08-17T03:57:37.129Z,23.99
2022-08-17T04:00:42.319Z,23.44
2022-08-17T04:03:44.172Z,22.78
2022-08-17T04:06:46.217Z,23.14
2022-08-17T04:09:48.119Z,22.97
2022-08-17T04:12:51.607Z,23.19
2022-08-17T04:15:53.840Z,22.81
2022-08-17T04:18:55.760Z,23.36
2022-08-17T04:22:00.253Z,23.04
2022-08-17T04:25:04.209Z,24.10
2022-08-17T04:28:07.622Z,24.04
2022-08-17T04:31:17.538Z,23.09
2022-08-17T04:34:19.875Z,23.34
2022-08-17T04:37:22.097Z,24.17
2022-08-17T04:40:43.356Z,23.60
2022-08-17T04:43:45.664Z,23.22
2022-08-17T04:46:48.034Z,23.72
2022-08-17T04:49:49.853Z,23.60
2022-08-17T04:52:51.849Z,23.74
2022-08-17T04:55:54.148Z,24.59
2022-08-17T04:58:57.726Z,25.45
2022-08-17T05:01:59.536Z,25.03
2022-08-17T05:05:01.432Z,24.68
2022-08-17T05:08:04.262Z,25.24
2022-08-17T05:11:07.499Z,25.08
2022-08-17T05:14:09.351Z,26.77
2022-08-17T05:17:11.567Z,27.10
2022-08-17T05:20:13.572Z,26.95
2022-08-17T05:23:16.592Z,27.34
2022-08-17T05:26:25.475Z,28.01
2022-08-17T05:29:35.583Z,27.75
2022-08-17T05:32:40.338Z,28.70
2022-08-17T05:35:44.468Z,29.94
2022-08-17T05:38:46.304Z,30.05
2022-08-17T05:41:48.310Z,30.12
2022-08-17T05:44:52.547Z,30.70
2022-08-17T05:47:54.390Z,30.48
2022-08-17T05:51:11.307Z,31.77
2022-08-17T05:54:19.545Z,31.17
2022-08-17T05:57:21.308Z,30.54
2022-08-17T06:00:26.472Z,29.60
2022-08-17T06:03:39.299Z,29.04
2022-08-17T06:07:01.600Z,31.15
2022-08-17T06:10:05.904Z,30.80
2022-08-17T06:13:07.947Z,30.48
2022-08-17T06:16:33.914Z,31.74
2022-08-17T06:19:37.069Z,30.67
2022-08-17T06:22:45.119Z,31.24
2022-08-17T06:25:48.836Z,29.72
2022-08-17T06:28:52.175Z,31.93
2022-08-17T06:31:54.053Z,32.16
2022-08-17T06:34:57.569Z,30.96
2022-08-17T06:38:02.330Z,32.58
2022-08-17T06:41:23.131Z,32.84
2022-08-17T06:44:43.729Z,33.98
2022-08-17T06:47:52.736Z,35.65
2022-08-17T06:50:54.604Z,33.01
2022-08-17T06:54:07.253Z,33.73
2022-08-17T06:57:21.639Z,35.55
2022-08-17T07:00:24.924Z,32.54
2022-08-17T07:03:29.918Z,34.71
2022-08-17T07:06:37.774Z,33.59
2022-08-17T07:09:40.198Z,33.09
2022-08-17T07:12:42.403Z,32.92
2022-08-17T07:15:44.500Z,33.70
2022-08-17T07:18:46.866Z,33.87
2022-08-17T07:21:52.058Z,35.58
2022-08-17T07:24:59.945Z,37.75
2022-08-17T07:28:03.889Z,35.56
2022-08-17T07:31:09.374Z,33.84
2022-08-17T07:34:17.128Z,35.71
2022-08-17T07:37:19.278Z,34.43
2022-08-17T07:40:32.123Z,36.81
2022-08-17T07:43:37.560Z,35.17
2022-08-17T07:47:08.846Z,35.60
2022-08-17T07:50:40.146Z,36.67
2022-08-17T07:53:42.271Z,37.44
2022-08-17T07:56:45.536Z,36.09
2022-08-17T07:59:59.825Z,36.86
2022-08-17T08:03:04.572Z,35.99
2022-08-17T08:06:20.381Z,38.30
2022-08-17T08:09:34.468Z,36.53
2022-08-17T08:12:39.544Z,37.06
2022-08-17T08:15:54.280Z,36.73
2022-08-17T08:18:58.263Z,36.40
2022-08-17T08:22:11.276Z,36.91
2022-08-17T08:25:23.032Z,37.05
2022-08-17T08:28:36.083Z,36.93
2022-08-17T08:31:57.668Z,36.92
2022-08-17T08:35:07.882Z,36.87
2022-08-17T08:38:20.216Z,40.35
2022-08-17T08:41:30.962Z,41.85
2022-08-17T08:45:00.113Z,40.89
2022-08-17T08:48:07.252Z,40.90
2022-08-17T08:51:27.662Z,41.33
2022-08-17T08:54:33.476Z,39.67
2022-08-17T08:57:40.014Z,38.70
2022-08-17T09:00:43.846Z,39.37
2022-08-17T09:03:53.354Z,40.83
2022-08-17T09:07:04.641Z,42.53
2022-08-17T09:10:09.353Z,42.26
2022-08-17T09:13:22.813Z,40.38
2022-08-17T09:16:33.250Z,39.85
2022-08-17T09:19:38.238Z,39.60
2022-08-17T09:22:44.671Z,39.33
2022-08-17T09:25:51.563Z,38.90
2022-08-17T09:28:54.730Z,39.39
2022-08-17T09:31:57.924Z,41.42
2022-08-17T09:35:05.761Z,39.65
2022-08-17T09:38:16.870Z,39.39
2022-08-17T09:41:24.513Z,39.94
2022-08-17T09:44:52.858Z,39.83
2022-08-17T09:48:07.195Z,39.93
2022-08-17T09:51:23.662Z,39.66
2022-08-17T09:54:44.851Z,41.00
2022-08-17T09:57:53.120Z,40.98
2022-08-17T10:01:00.058Z,43.07
2022-08-17T10:04:22.852Z,45.50
2022-08-17T10:07:27.957Z,40.87
2022-08-17T10:10:33.479Z,41.43
2022-08-17T10:13:54.408Z,41.67
2022-08-17T10:17:11.263Z,43.01
2022-08-17T10:20:16.466Z,42.94
2022-08-17T10:23:40.788Z,42.10
2022-08-17T10:26:55.832Z,41.52
2022-08-17T10:30:00.163Z,43.67
2022-08-17T10:33:03.889Z,41.08
2022-08-17T10:36:38.042Z,44.28
2022-08-17T10:39:52.408Z,43.55
2022-08-17T10:43:02.514Z,41.35
2022-08-17T10:46:31.317Z,42.86
2022-08-17T10:49:47.448Z,41.42
2022-08-17T10:52:50.983Z,38.51
2022-08-17T10:56:11.746Z,39.80
2022-08-17T10:59:33.724Z,37.60
2022-08-17T11:02:54.300Z,38.37
2022-08-17T11:06:02.717Z,39.49
2022-08-17T11:09:11.389Z,40.28
2022-08-17T11:12:13.378Z,40.40
2022-08-17T11:15:21.336Z,40.63
2022-08-17T11:18:26.191Z,42.90
2022-08-17T11:21:28.206Z,41.96
2022-08-17T11:24:36.237Z,41.47
2022-08-17T11:27:38.071Z,42.96
2022-08-17T11:30:48.534Z,43.73
2022-08-17T11:33:53.065Z,44.94
2022-08-17T11:36:58.396Z,43.80
2022-08-17T11:40:19.063Z,46.84
2022-08-17T11:43:30.222Z,44.48
2022-08-17T11:47:13.820Z,46.61
2022-08-17T11:50:40.399Z,45.28
2022-08-17T11:53:42.994Z,44.63
2022-08-17T11:56:49.143Z,44.26
2022-08-17T11:59:54.390Z,45.68
2022-08-17T12:03:22.244Z,45.14
2022-08-17T12:06:30.655Z,45.29
2022-08-17T12:09:33.032Z,45.73
2022-08-17T12:12:36.075Z,45.85
2022-08-17T12:15:41.055Z,45.90
2022-08-17T12:18:48.894Z,43.74
2022-08-17T12:21:59.151Z,43.90
2022-08-17T12:25:04.975Z,43.53
2022-08-17T12:28:20.127Z,44.90
2022-08-17T12:31:27.342Z,46.84
2022-08-17T12:34:39.268Z,46.07
2022-08-17T12:37:43.478Z,45.91
2022-08-17T12:41:28.499Z,44.38
2022-08-17T12:44:31.579Z,46.54
2022-08-17T12:47:35.687Z,45.86
2022-08-17T12:50:39.418Z,46.76
2022-08-17T12:53:44.924Z,43.57
2022-08-17T12:56:47.646Z,41.20
2022-08-17T12:59:54.285Z,39.39
2022-08-17T13:03:03.533Z,39.00
2022-08-17T13:06:06.661Z,37.92
2022-08-17T13:09:13.411Z,38.78
2022-08-17T13:12:15.615Z,37.40
2022-08-17T13:15:27.737Z,37.70
2022-08-17T13:18:43.210Z,38.37
2022-08-17T13:21:47.309Z,37.67
2022-08-17T13:24:53.149Z,37.66
2022-08-17T13:27:55.665Z,38.38
2022-08-17T13:31:16.750Z,37.33
2022-08-17T13:34:18.691Z,37.12
2022-08-17T13:37:29.554Z,37.39
2022-08-17T13:40:38.844Z,37.49
2022-08-17T13:43:50.610Z,37.25
2022-08-17T13:46:52.557Z,36.87
2022-08-17T13:49:59.533Z,36.92
2022-08-17T13:53:01.589Z,36.59
2022-08-17T13:56:03.576Z,36.91
2022-08-17T13:59:16.086Z,36.53
2022-08-17T14:02:18.858Z,36.72
2022-08-17T14:05:23.118Z,37.08
2022-08-17T14:08:30.979Z,36.37
2022-08-17T14:11:33.411Z,36.84
2022-08-17T14:14:35.553Z,37.36
2022-08-17T14:17:39.050Z,37.09
2022-08-17T14:20:41.144Z,36.93
2022-08-17T14:23:54.307Z,36.79
2022-08-17T14:26:57.766Z,36.96
2022-08-17T14:30:03.433Z,36.71
2022-08-17T14:33:06.158Z,37.05
2022-08-17T14:36:08.479Z,37.31
2022-08-17T14:39:10.598Z,36.61
2022-08-17T14:42:15.569Z,37.38
2022-08-17T14:45:31.494Z,36.72
2022-08-17T14:48:38.355Z,37.37
2022-08-17T14:51:43.714Z,36.70
2022-08-17T14:54:46.388Z,37.18
2022-08-17T14:57:48.524Z,36.45
2022-08-17T15:00:53.449Z,37.21
2022-08-17T15:03:55.280Z,37.77
2022-08-17T15:06:58.330Z,36.28
2022-08-17T15:10:01.351Z,36.64
2022-08-17T15:13:03.880Z,36.71
2022-08-17T15:16:05.852Z,36.38
2022-08-17T15:19:08.005Z,36.01
2022-08-17T15:22:18.106Z,36.37
2022-08-17T15:25:20.035Z,36.53
2022-08-17T15:28:25.131Z,36.27
2022-08-17T15:31:32.202Z,35.84
2022-08-17T15:34:34.511Z,36.39
2022-08-17T15:37:37.570Z,36.58
2022-08-17T15:40:40.997Z,36.48
2022-08-17T15:43:43.000Z,36.55
2022-08-17T15:46:44.895Z,36.94
2022-08-17T15:49:46.831Z,35.89
2022-08-17T15:52:53.835Z,35.90
2022-08-17T15:55:55.761Z,36.29
2022-08-17T15:58:57.991Z,36.11
2022-08-17T16:03:16.133Z,36.21
2022-08-17T16:05:24.132Z,35.86
2022-08-17T16:08:28.725Z,36.35
2022-08-17T16:11:30.525Z,36.53
2022-08-17T16:14:34.933Z,36.71
2022-08-17T16:17:40.206Z,36.20
2022-08-17T16:20:42.822Z,35.51
2022-08-17T16:23:44.681Z,35.30
2022-08-17T16:26:46.577Z,35.95
2022-08-17T16:29:48.478Z,35.78
2022-08-17T16:32:56.659Z,35.91
2022-08-17T16:35:58.578Z,35.80
2022-08-17T16:39:01.410Z,35.62
2022-08-17T16:42:03.414Z,35.95
2022-08-17T16:45:07.634Z,36.25
2022-08-17T16:48:09.705Z,35.68
2022-08-17T16:51:11.619Z,35.89
2022-08-17T16:54:17.569Z,35.31
2022-08-17T16:57:19.652Z,36.07
2022-08-17T17:00:21.583Z,35.43
2022-08-17T17:03:23.954Z,35.79
2022-08-17T17:06:45.164Z,35.08
2022-08-17T17:09:52.694Z,35.75
2022-08-17T17:13:01.546Z,35.00
2022-08-17T17:16:17.797Z,35.70
2022-08-17T17:19:34.313Z,35.60
2022-08-17T17:22:37.588Z,35.23
2022-08-17T17:26:01.759Z,35.60
2022-08-17T17:29:03.647Z,35.59
2022-08-17T17:32:17.335Z,35.56
2022-08-17T17:35:21.727Z,35.58
2022-08-17T17:38:29.088Z,35.41
2022-08-17T17:41:37.671Z,35.25
2022-08-17T17:44:41.170Z,34.86
2022-08-17T17:47:43.657Z,34.12
2022-08-17T17:51:09.476Z,34.73
2022-08-17T17:54:14.416Z,34.84
2022-08-17T17:57:24.676Z,34.72
2022-08-17T18:00:30.965Z,34.73
2022-08-17T18:03:51.689Z,34.67
2022-08-17T18:07:00.282Z,34.45
2022-08-17T18:10:05.063Z,34.22
2022-08-17T18:13:26.646Z,34.38
2022-08-17T18:16:31.911Z,34.27
2022-08-17T18:19:34.063Z,34.09
2022-08-17T18:22:35.967Z,33.90
2022-08-17T18:25:40.625Z,33.57
2022-08-17T18:28:43.956Z,33.53
2022-08-17T18:31:45.866Z,33.81
2022-08-17T18:34:49.092Z,33.33
2022-08-17T18:37:52.109Z,33.24
2022-08-17T18:41:05.083Z,32.81
2022-08-17T18:44:16.579Z,32.02
2022-08-17T18:47:25.702Z,32.25
2022-08-17T18:50:28.965Z,32.81
2022-08-17T18:53:38.140Z,33.12
2022-08-17T18:56:43.810Z,32.63
2022-08-17T18:59:47.000Z,32.78
2022-08-17T19:02:52.748Z,32.17
2022-08-17T19:06:14.913Z,32.16
2022-08-17T19:09:26.941Z,32.07
2022-08-17T19:12:33.645Z,31.72
2022-08-17T19:15:35.889Z,31.32
2022-08-17T19:18:40.697Z,31.21
2022-08-17T19:21:43.034Z,32.03
2022-08-17T19:24:47.766Z,32.34
2022-08-17T19:28:21.750Z,32.47
2022-08-17T19:31:26.760Z,32.47
2022-08-17T19:34:34.002Z,31.44
2022-08-17T19:37:37.332Z,31.10
2022-08-17T19:40:53.978Z,31.88
2022-08-17T19:44:11.606Z,31.44
2022-08-17T19:47:43.802Z,30.90
2022-08-17T19:50:49.773Z,30.87
2022-08-17T19:54:05.532Z,31.46
2022-08-17T19:57:08.355Z,31.46
2022-08-17T20:00:16.466Z,31.35
2022-08-17T20:03:23.161Z,30.83
2022-08-17T20:06:27.481Z,30.61
2022-08-17T20:09:37.558Z,31.00
2022-08-17T20:12:39.771Z,31.74
2022-08-17T20:15:42.729Z,30.62
2022-08-17T20:18:47.701Z,30.92
2022-08-17T20:21:52.774Z,30.34
2022-08-17T20:24:58.114Z,30.26
2022-08-17T20:28:18.891Z,30.70
2022-08-17T20:31:39.428Z,30.94
2022-08-17T20:34:42.717Z,31.01
2022-08-17T20:37:51.519Z,30.03
2022-08-17T20:40:57.449Z,30.00
2022-08-17T20:43:59.402Z,30.15
2022-08-17T20:47:03.767Z,29.21
2022-08-17T20:50:07.022Z,29.72
2022-08-17T20:53:15.161Z,29.96
2022-08-17T20:56:36.359Z,30.23
2022-08-17T20:59:45.158Z,29.80
2022-08-17T21:02:49.635Z,29.30
2022-08-17T21:05:59.875Z,28.94
2022-08-17T21:09:16.137Z,29.75
2022-08-17T21:12:36.861Z,29.83
2022-08-17T21:15:42.953Z,29.30
2022-08-17T21:18:48.787Z,28.94
2022-08-17T21:21:50.647Z,28.63
2022-08-17T21:24:55.336Z,28.81
2022-08-17T21:27:58.660Z,28.87
2022-08-17T21:31:06.787Z,28.80
2022-08-17T21:34:15.844Z,28.49
2022-08-17T21:37:20.537Z,28.90
2022-08-17T21:40:24.893Z,29.03
2022-08-17T21:43:32.423Z,29.11
2022-08-17T21:46:36.954Z,28.64
2022-08-17T21:49:39.730Z,28.94
2022-08-17T21:52:41.613Z,29.00
2022-08-17T21:55:43.463Z,28.77
2022-08-17T21:58:48.530Z,28.48
2022-08-17T22:01:56.027Z,29.12
2022-08-17T22:05:03.088Z,29.26
2022-08-17T22:08:18.458Z,29.22
2022-08-17T22:11:22.588Z,28.70
2022-08-17T22:33:35.990Z,27.84
2022-08-17T22:36:39.030Z,28.26
2022-08-17T22:39:41.078Z,27.82
2022-08-17T22:42:44.132Z,28.69
2022-08-17T22:45:47.178Z,28.06
2022-08-17T22:48:50.168Z,27.20
2022-08-17T22:51:59.358Z,26.90
2022-08-17T22:55:31.741Z,27.22
2022-08-17T22:58:59.062Z,27.91
2022-08-17T23:02:13.127Z,27.13
2022-08-17T23:05:16.635Z,27.00
2022-08-17T23:08:21.278Z,27.27
2022-08-17T23:11:36.811Z,28.12
2022-08-17T23:14:51.484Z,28.20
2022-08-17T23:17:53.554Z,28.19
2022-08-17T23:20:55.607Z,27.21
2022-08-17T23:23:59.067Z,26.85
2022-08-17T23:27:01.163Z,27.15
2022-08-17T23:30:03.270Z,27.49
2022-08-17T23:33:05.770Z,27.83
2022-08-17T23:36:09.691Z,27.79
2022-08-17T23:39:11.577Z,27.45
2022-08-17T23:42:15.356Z,26.92
2022-08-17T23:45:17.989Z,26.90
2022-08-17T23:48:35.454Z,27.40
2022-08-17T23:51:42.577Z,26.50
2022-08-17T23:54:46.516Z,27.21
2022-08-17T23:57:48.591Z,26.57
